Caledonia, MI (49316)

11:04 PM EDT on July 24, 2016 (GMT -0400)
Trudeau Weather Station - Green Lake | | Change Station

Elev 814 ft 42.75 °N, 85.61 °W | Updated 27 seconds ago

Overcast
Overcast
82.8 °F
Feels Like 93 °F
N
6.9
Wind Variable Wind from WSW
Gusts 18.0 mph

Today
High -- | Low -- °F
--% Chance of Precip.
Yesterday
High -- | Low -- °F
Precip. -- in
Pressure 29.85 in
Visibility 9.0 miles
Clouds Scattered Clouds 4000 ft
Mostly Cloudy 9000 ft
Overcast 24000 ft
Heat Index 93 °F
Dew Point 78 °F
Humidity 86%
Rainfall 0.72 in
Snow Depth Not available.
6:26 AM 9:10 PM
Waning Gibbous, 70% visible
METAR KGRR 250253Z 21008KT 9SM SCT040 BKN090 OVC240 28/24 A2986 RMK AO2 LTG DSNT N AND NW SLP107 T02830244 51005
Pressure 29.85 in
Visibility 9.0 miles
Clouds Scattered Clouds 4000 ft
Mostly Cloudy 9000 ft
Overcast 24000 ft
Heat Index 93 °F
Dew Point 78 °F
Humidity 86%
Rainfall 0.72 in
Snow Depth Not available.
6:26 AM 9:10 PM
Waning Gibbous, 70% visible
METAR KGRR 250253Z 21008KT 9SM SCT040 BKN090 OVC240 28/24 A2986 RMK AO2 LTG DSNT N AND NW SLP107 T02830244 51005

10-Day Weather Forecast

Almanac

Astronomy

Jul. 24, 2016 Rise Set
Actual Time
Civil Twilight
Nautical Twilight
Astronomical Twilight
Moon
Length of Visible Light
Length of Day
Tomorrow will be .
, % of the Moon is Illuminated

Today's Extremes

State Highs State Lows

Community

WunderPhotos

Upload Photos

1,927,252 photos uploaded!

WunderBlog® & News

Nearby

Air Quality

  Air Quality AQ Index Pollutant
Not available.

Snow Depth

Station Depth Elevation

Earthquake Activity

City Distance Mag. Time & Date
Minimum magnitude displayed is 2.5.

Coastal Water Temperatures

Place Temperature

Stations

Nearby Weather Stations

Station Location Temp. Windchill Dew Point Humidity Wind Precip. Elev Updated Type
                   

Watches & Warnings

There are currently no watches in effect.